createdAt,value
2018-11-04T00:04:56.787Z,2.22
2018-11-04T00:10:51.826Z,2.85
2018-11-04T00:16:46.778Z,3.17
2018-11-04T00:22:41.786Z,3.07
2018-11-04T00:28:36.786Z,3.22
2018-11-04T00:34:31.863Z,3.12
2018-11-04T00:40:26.767Z,3.4
2018-11-04T00:46:21.793Z,3.27
2018-11-04T00:52:16.789Z,3.08
2018-11-04T00:58:11.843Z,3.41
2018-11-04T01:04:06.829Z,3.44
2018-11-04T01:10:01.787Z,3.43
2018-11-04T01:15:56.840Z,3.48
2018-11-04T01:21:51.799Z,3.37
2018-11-04T01:27:46.796Z,3.29
2018-11-04T01:33:41.821Z,3.71
2018-11-04T01:39:36.820Z,3.91
2018-11-04T01:45:31.837Z,4.03
2018-11-04T01:51:26.846Z,3.09
2018-11-04T01:57:21.848Z,3.81
2018-11-04T02:03:16.836Z,4.24
2018-11-04T02:09:11.814Z,4.01
2018-11-04T02:15:06.874Z,3.93
2018-11-04T02:21:01.840Z,4.01
2018-11-04T02:26:56.830Z,4.05
2018-11-04T02:32:51.854Z,4.2
2018-11-04T02:38:46.870Z,3.84
2018-11-04T02:44:41.852Z,4.32
2018-11-04T02:50:36.863Z,4.22
2018-11-04T02:56:31.858Z,4.11
2018-11-04T03:02:26.939Z,4.01
2018-11-04T03:08:21.868Z,4.18
2018-11-04T03:14:16.917Z,3.77
2018-11-04T03:20:11.889Z,3.99
2018-11-04T03:26:06.884Z,3.54
2018-11-04T03:32:01.945Z,3.48
2018-11-04T03:37:56.887Z,3.89
2018-11-04T03:43:51.911Z,3.51
2018-11-04T03:49:46.925Z,3.8
2018-11-04T03:55:41.894Z,3.41
2018-11-04T04:01:36.902Z,4.1
2018-11-04T04:07:31.917Z,3.33
2018-11-04T04:13:26.917Z,3.47
2018-11-04T04:19:21.892Z,4.35
2018-11-04T04:25:16.910Z,3.37
2018-11-04T04:31:11.913Z,3.5
2018-11-04T04:37:06.922Z,3.02
2018-11-04T04:43:01.992Z,3.18
2018-11-04T04:48:56.930Z,3.18
2018-11-04T04:54:51.917Z,3.41
2018-11-04T05:00:46.990Z,3.92
2018-11-04T05:06:41.933Z,3.37
2018-11-04T05:12:36.947Z,3.67
2018-11-04T05:18:31.974Z,3.72
2018-11-04T05:24:26.962Z,3.83
2018-11-04T05:30:21.955Z,3.61
2018-11-04T05:36:16.969Z,3.91
2018-11-04T05:42:12.000Z,3.97
2018-11-04T05:48:06.958Z,4.1
2018-11-04T05:54:02.029Z,4.2
2018-11-04T05:59:57.008Z,3.91
2018-11-04T06:05:51.992Z,3.8
2018-11-04T06:11:47.061Z,4.29
2018-11-04T06:17:41.986Z,4.45
2018-11-04T06:23:37.004Z,4.11
2018-11-04T06:29:32.006Z,4.45
2018-11-04T06:35:27.034Z,4.15
2018-11-04T06:41:22.014Z,4.35
2018-11-04T06:47:17.138Z,4.28
2018-11-04T06:53:12.082Z,3.6
2018-11-04T06:59:07.000Z,3.7
2018-11-04T07:05:02.032Z,3.86
2018-11-04T07:10:57.030Z,3.79
2018-11-04T07:16:52.028Z,4.16
2018-11-04T07:22:47.082Z,3.89
2018-11-04T07:28:42.037Z,4.42
2018-11-04T07:34:37.033Z,4.27
2018-11-04T07:40:32.059Z,3.99
2018-11-04T07:46:27.041Z,4.07
2018-11-04T07:52:22.114Z,4.09
2018-11-04T07:58:17.046Z,4.06
2018-11-04T08:04:12.134Z,4.24
2018-11-04T08:10:07.055Z,4.17
2018-11-04T08:16:02.096Z,4.62
2018-11-04T08:21:57.105Z,4.31
2018-11-04T08:27:52.199Z,3.86
2018-11-04T08:33:47.096Z,4.78
2018-11-04T08:39:42.151Z,5.16
2018-11-04T08:45:37.092Z,4.56
2018-11-04T08:51:32.094Z,4.79
2018-11-04T08:57:27.088Z,4.6
2018-11-04T09:03:22.088Z,5.47
2018-11-04T09:09:17.156Z,4.64
2018-11-04T09:15:12.124Z,5.96
2018-11-04T09:21:07.143Z,5.69
2018-11-04T09:27:02.104Z,4.79
2018-11-04T09:32:57.110Z,5.39
2018-11-04T09:38:52.140Z,4.68
2018-11-04T09:44:47.150Z,5.13
2018-11-04T09:50:42.128Z,5.54
2018-11-04T09:56:37.247Z,5.17
2018-11-04T10:02:32.119Z,5.29
2018-11-04T10:08:27.155Z,5.37
2018-11-04T10:14:22.192Z,5.09
2018-11-04T10:20:17.403Z,6.28
2018-11-04T10:26:12.153Z,5.46
2018-11-04T10:32:07.161Z,5.42
2018-11-04T10:38:02.176Z,5.51
2018-11-04T10:43:57.158Z,5.36
2018-11-04T10:49:52.250Z,4.77
2018-11-04T10:55:47.276Z,4.92
2018-11-04T11:01:42.190Z,4.92
2018-11-04T11:07:37.175Z,5.11
2018-11-04T11:13:32.197Z,5.11
2018-11-04T11:19:27.168Z,10.11
2018-11-04T11:25:22.254Z,5.56
2018-11-04T11:31:17.197Z,5.74
2018-11-04T11:37:12.261Z,6.11
2018-11-04T11:43:07.289Z,5.71
2018-11-04T11:49:02.221Z,7.2
2018-11-04T11:54:57.203Z,8.75
2018-11-04T12:00:52.193Z,9.1
2018-11-04T12:06:47.248Z,8.34
2018-11-04T12:12:42.244Z,9.02
2018-11-04T12:18:37.214Z,8.84
2018-11-04T12:24:32.231Z,7.73
2018-11-04T12:30:27.324Z,8.11
2018-11-04T12:36:22.240Z,7.37
2018-11-04T12:42:17.233Z,7.24
2018-11-04T12:48:12.242Z,5.43
2018-11-04T12:54:07.239Z,3.38
2018-11-04T13:00:02.289Z,4.44
2018-11-04T13:05:57.254Z,4.18
2018-11-04T13:11:52.253Z,4.49
2018-11-04T13:17:47.276Z,3.73
2018-11-04T13:23:42.248Z,4
2018-11-04T13:29:37.309Z,4.69
2018-11-04T13:35:32.285Z,4.54
2018-11-04T13:41:27.292Z,4.15
2018-11-04T13:47:22.275Z,5.47
2018-11-04T13:53:17.289Z,5.11
2018-11-04T13:59:12.310Z,6.49
2018-11-04T14:05:07.298Z,5.91
2018-11-04T14:11:02.310Z,6.25
2018-11-04T14:16:57.291Z,5.52
2018-11-04T14:22:52.336Z,5.93
2018-11-04T14:28:47.308Z,5.8
2018-11-04T14:34:42.311Z,5.37
2018-11-04T14:40:37.299Z,6.86
2018-11-04T14:46:32.320Z,6.19
2018-11-04T14:52:27.373Z,6.32
2018-11-04T14:58:22.324Z,5.72
2018-11-04T15:04:17.395Z,5.95
2018-11-04T15:10:12.330Z,6.21
2018-11-04T15:16:07.338Z,7.2
2018-11-04T15:22:02.342Z,6.59
2018-11-04T15:27:57.350Z,6.08
2018-11-04T15:33:52.407Z,6.31
2018-11-04T15:39:47.399Z,5.78
2018-11-04T15:45:42.464Z,6.27
2018-11-04T15:51:37.360Z,5.92
2018-11-04T15:57:32.355Z,6.1
2018-11-04T16:03:27.359Z,6.09
2018-11-04T16:09:22.357Z,8.22
2018-11-04T16:15:17.377Z,6.56
2018-11-04T16:21:12.440Z,6.61
2018-11-04T16:27:07.394Z,6.27
2018-11-04T16:33:02.380Z,5.67
2018-11-04T16:38:57.374Z,5.51
2018-11-04T16:44:52.387Z,5.54
2018-11-04T16:50:47.425Z,5.3
2018-11-04T16:56:42.425Z,5.91
2018-11-04T17:02:37.433Z,5.37
2018-11-04T17:08:32.397Z,5.79
2018-11-04T17:14:27.423Z,5.29
2018-11-04T17:20:22.439Z,5.75
2018-11-04T17:26:17.444Z,6.73
2018-11-04T17:32:12.408Z,6.64
2018-11-04T17:38:07.430Z,6.24
2018-11-04T17:44:02.461Z,6.48
2018-11-04T17:49:57.436Z,7.31
2018-11-04T17:55:52.475Z,6.43
2018-11-04T18:01:47.438Z,6.73
2018-11-04T18:07:42.467Z,7.45
2018-11-04T18:13:37.521Z,6.73
2018-11-04T18:19:32.491Z,6.82
2018-11-04T18:25:27.464Z,5.99
2018-11-04T18:31:22.472Z,6.06
2018-11-04T18:37:17.460Z,6.47
2018-11-04T18:43:12.472Z,8.58
2018-11-04T18:49:07.467Z,9.65
2018-11-04T18:55:02.489Z,9.2
2018-11-04T19:00:57.521Z,9.02
2018-11-04T19:06:52.479Z,10.47
2018-11-04T19:12:47.496Z,7.87
2018-11-04T19:18:42.562Z,7.53
2018-11-04T19:24:37.527Z,6.71
2018-11-04T19:30:32.495Z,7.66
2018-11-04T19:36:27.522Z,7.83
2018-11-04T19:42:22.534Z,7.6
2018-11-04T19:48:17.753Z,8
2018-11-04T19:54:12.536Z,7.95
2018-11-04T20:00:07.567Z,7.85
2018-11-04T20:06:02.616Z,7.15
2018-11-04T20:11:57.587Z,8.12
2018-11-04T20:17:52.563Z,9.9
2018-11-04T20:23:47.557Z,12.49
2018-11-04T20:29:42.555Z,12.02
2018-11-04T20:35:37.586Z,10.9
2018-11-04T20:41:32.551Z,9.73
2018-11-04T20:47:27.542Z,6.98
2018-11-04T20:53:22.583Z,4.31
2018-11-04T20:59:17.546Z,4.26
2018-11-04T21:05:12.599Z,4.03
2018-11-04T21:11:07.610Z,4.53
2018-11-04T21:17:02.618Z,3.95
2018-11-04T21:22:57.630Z,3.48
2018-11-04T21:28:52.737Z,2.93
2018-11-04T21:34:47.582Z,2.37
2018-11-04T21:40:42.590Z,2.21
2018-11-04T21:46:37.610Z,1.5
2018-11-04T21:52:32.580Z,1.45
2018-11-04T21:58:27.584Z,1.55
2018-11-04T22:04:22.725Z,1.31
2018-11-04T22:10:17.686Z,1.44
2018-11-04T22:16:12.604Z,1.02
2018-11-04T22:22:07.689Z,1
2018-11-04T22:28:02.604Z,1.34
2018-11-04T22:33:57.629Z,1.03
2018-11-04T22:39:52.644Z,0.99
2018-11-04T22:45:47.711Z,1.1
2018-11-04T22:51:42.619Z,0.83
2018-11-04T22:57:37.623Z,0.98
2018-11-04T23:03:32.633Z,0.9
2018-11-04T23:09:27.673Z,0.91
2018-11-04T23:15:22.641Z,0.97
2018-11-04T23:21:17.704Z,1.19
2018-11-04T23:27:12.733Z,1.42
2018-11-04T23:33:07.638Z,1.21
2018-11-04T23:39:02.689Z,1.28
2018-11-04T23:44:57.654Z,1.55
2018-11-04T23:50:52.649Z,1.77
2018-11-04T23:56:47.676Z,1.56
